Terminal Aerodrome Forecast
Issued by NWS Indianapolis, IN

Current Version | Previous Version | Text Only | Print | Product List | Glossary On
Versions: 1 2 3 4 5 6 7 8 9 10 11 12 13 14 15 16 17 18 19 20 21 22 23 24 25 26
000
FTUS43 KIND 251131
TAFIND
TAF
KIND 251131Z 2512/2618 21008KT P6SM VCSH SCT020 BKN070
      TEMPO 2512/2514 BKN020
     FM251530 23011KT P6SM SCT035 SCT080 BKN250 PROB30 2522/2604 3SM
      -TSRA OVC030CB
     FM260400 30005KT P6SM SCT040 BKN080=

USA.gov is the U.S. government's official web portal to all federal, state and local government web resources and services.